sensor_id;sensor_type;location;lat;lon;timestamp;pressure;altitude;pressure_sealevel;temperature;humidity
76201;BME280;64981;52.930;9.266;2023-08-21T00:01:36;101980.06;;;17.86;75.68
76201;BME280;64981;52.930;9.266;2023-08-21T00:04:02;101979.63;;;17.83;75.49
76201;BME280;64981;52.930;9.266;2023-08-21T00:06:28;101976.13;;;17.82;75.49
76201;BME280;64981;52.930;9.266;2023-08-21T00:08:53;101977.28;;;17.80;75.71
76201;BME280;64981;52.930;9.266;2023-08-21T00:11:19;101974.31;;;17.74;75.55
76201;BME280;64981;52.930;9.266;2023-08-21T00:13:45;101974.03;;;17.69;75.86
76201;BME280;64981;52.930;9.266;2023-08-21T00:16:13;101974.88;;;17.70;75.58
76201;BME280;64981;52.930;9.266;2023-08-21T00:18:38;101986.22;;;17.72;75.73
76201;BME280;64981;52.930;9.266;2023-08-21T00:21:04;101979.19;;;17.71;75.70
76201;BME280;64981;52.930;9.266;2023-08-21T00:23:30;101979.06;;;17.64;75.87
76201;BME280;64981;52.930;9.266;2023-08-21T00:25:56;101986.56;;;17.69;76.02
76201;BME280;64981;52.930;9.266;2023-08-21T00:28:22;101982.78;;;17.63;75.59
76201;BME280;64981;52.930;9.266;2023-08-21T00:30:48;101973.97;;;17.55;75.93
76201;BME280;64981;52.930;9.266;2023-08-21T00:33:13;101983.88;;;17.46;76.25
76201;BME280;64981;52.930;9.266;2023-08-21T00:35:39;101991.53;;;17.49;76.47
76201;BME280;64981;52.930;9.266;2023-08-21T00:38:04;101985.91;;;17.44;76.62
76201;BME280;64981;52.930;9.266;2023-08-21T00:40:31;101980.25;;;17.39;76.45
76201;BME280;64981;52.930;9.266;2023-08-21T00:42:57;101989.44;;;17.37;76.57
76201;BME280;64981;52.930;9.266;2023-08-21T00:45:22;101972.78;;;17.35;76.39
76201;BME280;64981;52.930;9.266;2023-08-21T00:47:48;101989.28;;;17.38;76.21
76201;BME280;64981;52.930;9.266;2023-08-21T00:50:14;101974.31;;;17.29;76.39
76201;BME280;64981;52.930;9.266;2023-08-21T00:52:44;101976.78;;;17.31;76.21
76201;BME280;64981;52.930;9.266;2023-08-21T00:55:12;101980.66;;;17.28;76.46
76201;BME280;64981;52.930;9.266;2023-08-21T00:57:39;101981.84;;;17.26;76.39
76201;BME280;64981;52.930;9.266;2023-08-21T01:00:06;101977.69;;;17.23;76.14
76201;BME280;64981;52.930;9.266;2023-08-21T01:02:35;101973.69;;;17.19;76.35
76201;BME280;64981;52.930;9.266;2023-08-21T01:05:01;101985.38;;;17.18;76.64
76201;BME280;64981;52.930;9.266;2023-08-21T01:07:26;101984.91;;;17.14;76.15
76201;BME280;64981;52.930;9.266;2023-08-21T01:10:01;101988.53;;;17.21;76.06
76201;BME280;64981;52.930;9.266;2023-08-21T01:12:37;101987.06;;;17.19;75.93
76201;BME280;64981;52.930;9.266;2023-08-21T01:15:07;101993.56;;;17.16;76.09
76201;BME280;64981;52.930;9.266;2023-08-21T01:17:36;101998.91;;;17.16;75.78
76201;BME280;64981;52.930;9.266;2023-08-21T01:20:05;101997.25;;;17.15;75.71
76201;BME280;64981;52.930;9.266;2023-08-21T01:22:37;101999.78;;;17.09;75.93
76201;BME280;64981;52.930;9.266;2023-08-21T01:25:04;102003.44;;;17.08;76.02
76201;BME280;64981;52.930;9.266;2023-08-21T01:27:31;101997.81;;;17.03;76.15
76201;BME280;64981;52.930;9.266;2023-08-21T01:29:58;101990.78;;;17.02;76.34
76201;BME280;64981;52.930;9.266;2023-08-21T01:32:43;101994.31;;;16.94;76.11
76201;BME280;64981;52.930;9.266;2023-08-21T01:35:11;102002.66;;;16.91;76.34
76201;BME280;64981;52.930;9.266;2023-08-21T01:37:37;102003.16;;;16.87;76.51
76201;BME280;64981;52.930;9.266;2023-08-21T01:40:04;101999.16;;;16.91;76.13
76201;BME280;64981;52.930;9.266;2023-08-21T01:42:30;102001.84;;;16.91;76.09
76201;BME280;64981;52.930;9.266;2023-08-21T01:44:56;102000.00;;;16.83;76.24
76201;BME280;64981;52.930;9.266;2023-08-21T01:47:21;101999.53;;;16.80;76.45
76201;BME280;64981;52.930;9.266;2023-08-21T01:49:47;102007.06;;;16.68;76.83
76201;BME280;64981;52.930;9.266;2023-08-21T01:52:12;102006.38;;;16.74;76.82
76201;BME280;64981;52.930;9.266;2023-08-21T01:54:38;102007.38;;;16.81;76.42
76201;BME280;64981;52.930;9.266;2023-08-21T01:57:03;101986.38;;;16.70;76.55
76201;BME280;64981;52.930;9.266;2023-08-21T01:59:29;101996.41;;;16.76;76.73
76201;BME280;64981;52.930;9.266;2023-08-21T02:01:55;101995.56;;;16.76;76.75
76201;BME280;64981;52.930;9.266;2023-08-21T02:04:20;101999.19;;;16.83;76.40
76201;BME280;64981;52.930;9.266;2023-08-21T02:06:46;101991.16;;;16.83;76.67
76201;BME280;64981;52.930;9.266;2023-08-21T02:09:12;101995.34;;;16.85;76.14
76201;BME280;64981;52.930;9.266;2023-08-21T02:11:37;101999.22;;;16.75;77.09
76201;BME280;64981;52.930;9.266;2023-08-21T02:14:03;101993.72;;;16.76;76.68
76201;BME280;64981;52.930;9.266;2023-08-21T02:16:28;101999.53;;;16.80;76.49
76201;BME280;64981;52.930;9.266;2023-08-21T02:18:54;102002.03;;;16.73;76.42
76201;BME280;64981;52.930;9.266;2023-08-21T02:21:20;101992.06;;;16.67;76.58
76201;BME280;64981;52.930;9.266;2023-08-21T02:23:46;101992.13;;;16.51;76.82
76201;BME280;64981;52.930;9.266;2023-08-21T02:26:11;101994.09;;;16.57;76.70
76201;BME280;64981;52.930;9.266;2023-08-21T02:28:37;101997.09;;;16.62;76.17
76201;BME280;64981;52.930;9.266;2023-08-21T02:31:02;101995.25;;;16.62;76.32
76201;BME280;64981;52.930;9.266;2023-08-21T02:33:28;102001.44;;;16.63;76.06
76201;BME280;64981;52.930;9.266;2023-08-21T02:35:54;102001.28;;;16.56;75.98
76201;BME280;64981;52.930;9.266;2023-08-21T02:38:19;102001.28;;;16.56;76.07
76201;BME280;64981;52.930;9.266;2023-08-21T02:40:45;101998.13;;;16.53;76.37
76201;BME280;64981;52.930;9.266;2023-08-21T02:43:10;101999.25;;;16.58;76.21
76201;BME280;64981;52.930;9.266;2023-08-21T02:45:36;101992.94;;;16.51;76.12
76201;BME280;64981;52.930;9.266;2023-08-21T02:48:02;101994.94;;;16.49;76.07
76201;BME280;64981;52.930;9.266;2023-08-21T02:50:27;101999.28;;;16.50;76.03
76201;BME280;64981;52.930;9.266;2023-08-21T02:52:53;102000.28;;;16.49;76.01
76201;BME280;64981;52.930;9.266;2023-08-21T02:55:18;101994.97;;;16.41;76.14
76201;BME280;64981;52.930;9.266;2023-08-21T02:57:45;102012.63;;;16.42;76.40
76201;BME280;64981;52.930;9.266;2023-08-21T03:00:11;102001.66;;;16.37;76.25
76201;BME280;64981;52.930;9.266;2023-08-21T03:02:37;102003.66;;;16.35;76.31
76201;BME280;64981;52.930;9.266;2023-08-21T03:05:04;102004.81;;;16.33;76.55
76201;BME280;64981;52.930;9.266;2023-08-21T03:07:29;102010.97;;;16.33;76.50
76201;BME280;64981;52.930;9.266;2023-08-21T03:09:55;102003.97;;;16.40;76.14
76201;BME280;64981;52.930;9.266;2023-08-21T03:12:21;101996.00;;;16.32;76.24
76201;BME280;64981;52.930;9.266;2023-08-21T03:14:46;101999.31;;;16.34;76.30
76201;BME280;64981;52.930;9.266;2023-08-21T03:17:12;101994.47;;;16.30;76.31
76201;BME280;64981;52.930;9.266;2023-08-21T03:19:37;102001.00;;;16.35;76.21
76201;BME280;64981;52.930;9.266;2023-08-21T03:22:03;101989.97;;;16.30;76.05
76201;BME280;64981;52.930;9.266;2023-08-21T03:24:28;101993.34;;;16.32;75.85
76201;BME280;64981;52.930;9.266;2023-08-21T03:26:54;101985.66;;;16.29;75.94
76201;BME280;64981;52.930;9.266;2023-08-21T03:29:20;101989.31;;;16.28;75.74
76201;BME280;64981;52.930;9.266;2023-08-21T03:31:49;101988.97;;;16.23;75.90
76201;BME280;64981;52.930;9.266;2023-08-21T03:34:14;101996.19;;;16.23;76.04
76201;BME280;64981;52.930;9.266;2023-08-21T03:36:40;101995.84;;;16.26;75.76
76201;BME280;64981;52.930;9.266;2023-08-21T03:39:05;101994.53;;;16.13;76.12
76201;BME280;64981;52.930;9.266;2023-08-21T03:41:31;101999.16;;;16.11;76.23
76201;BME280;64981;52.930;9.266;2023-08-21T03:43:57;102003.31;;;16.14;76.23
76201;BME280;64981;52.930;9.266;2023-08-21T03:46:22;102001.34;;;16.08;76.40
76201;BME280;64981;52.930;9.266;2023-08-21T03:48:48;101997.81;;;16.07;76.42
76201;BME280;64981;52.930;9.266;2023-08-21T03:51:15;102002.50;;;16.13;75.96
76201;BME280;64981;52.930;9.266;2023-08-21T03:53:41;101999.84;;;16.13;75.85
76201;BME280;64981;52.930;9.266;2023-08-21T03:56:07;101988.66;;;16.02;75.37
76201;BME280;64981;52.930;9.266;2023-08-21T03:58:33;101992.47;;;15.99;75.63
76201;BME280;64981;52.930;9.266;2023-08-21T04:00:59;101991.13;;;15.95;75.79
76201;BME280;64981;52.930;9.266;2023-08-21T04:03:25;102000.97;;;15.95;76.00
76201;BME280;64981;52.930;9.266;2023-08-21T04:05:53;101998.81;;;15.90;76.08
76201;BME280;64981;52.930;9.266;2023-08-21T04:08:19;102006.47;;;15.93;76.22
76201;BME280;64981;52.930;9.266;2023-08-21T04:10:44;102011.28;;;15.90;75.94
76201;BME280;64981;52.930;9.266;2023-08-21T04:13:10;102007.31;;;15.94;76.29
76201;BME280;64981;52.930;9.266;2023-08-21T04:15:35;102012.78;;;15.92;76.79
76201;BME280;64981;52.930;9.266;2023-08-21T04:18:01;102013.63;;;15.93;77.15
76201;BME280;64981;52.930;9.266;2023-08-21T04:20:26;102019.94;;;15.92;78.04
76201;BME280;64981;52.930;9.266;2023-08-21T04:22:52;102024.94;;;15.95;78.85
76201;BME280;64981;52.930;9.266;2023-08-21T04:25:18;102022.13;;;15.96;78.26
76201;BME280;64981;52.930;9.266;2023-08-21T04:27:43;102031.28;;;16.02;78.54
76201;BME280;64981;52.930;9.266;2023-08-21T04:30:10;102025.13;;;16.01;78.82
76201;BME280;64981;52.930;9.266;2023-08-21T04:32:35;102020.81;;;16.00;80.35
76201;BME280;64981;52.930;9.266;2023-08-21T04:35:01;102025.28;;;16.00;80.45
76201;BME280;64981;52.930;9.266;2023-08-21T04:37:27;102025.44;;;15.82;81.55
76201;BME280;64981;52.930;9.266;2023-08-21T04:39:54;102029.47;;;15.94;81.50
76201;BME280;64981;52.930;9.266;2023-08-21T04:42:21;102036.28;;;15.97;81.52
76201;BME280;64981;52.930;9.266;2023-08-21T04:44:47;102030.97;;;16.05;80.76
76201;BME280;64981;52.930;9.266;2023-08-21T04:47:23;102027.31;;;16.14;80.80
76201;BME280;64981;52.930;9.266;2023-08-21T04:49:50;102016.97;;;16.03;81.40
76201;BME280;64981;52.930;9.266;2023-08-21T04:52:16;102023.50;;;16.08;80.68
76201;BME280;64981;52.930;9.266;2023-08-21T04:54:42;102020.34;;;16.13;80.37
76201;BME280;64981;52.930;9.266;2023-08-21T04:57:08;102022.66;;;16.16;80.19
76201;BME280;64981;52.930;9.266;2023-08-21T04:59:35;102017.00;;;16.19;80.26
76201;BME280;64981;52.930;9.266;2023-08-21T05:02:01;102028.66;;;16.18;80.11
76201;BME280;64981;52.930;9.266;2023-08-21T05:04:27;102027.66;;;16.19;80.19
76201;BME280;64981;52.930;9.266;2023-08-21T05:06:53;102036.63;;;16.26;80.29
76201;BME280;64981;52.930;9.266;2023-08-21T05:09:18;102037.31;;;16.12;80.74
76201;BME280;64981;52.930;9.266;2023-08-21T05:11:44;102031.44;;;15.92;81.86
76201;BME280;64981;52.930;9.266;2023-08-21T05:14:10;102026.81;;;16.19;80.73
76201;BME280;64981;52.930;9.266;2023-08-21T05:16:35;102039.81;;;16.22;80.66
76201;BME280;64981;52.930;9.266;2023-08-21T05:19:01;102040.31;;;16.33;80.46
76201;BME280;64981;52.930;9.266;2023-08-21T05:21:27;102057.66;;;16.37;80.59
76201;BME280;64981;52.930;9.266;2023-08-21T05:23:53;102042.97;;;16.41;80.41
76201;BME280;64981;52.930;9.266;2023-08-21T05:26:19;102054.63;;;16.48;80.30
76201;BME280;64981;52.930;9.266;2023-08-21T05:28:45;102050.97;;;16.49;80.33
76201;BME280;64981;52.930;9.266;2023-08-21T05:31:10;102057.63;;;16.53;80.18
76201;BME280;64981;52.930;9.266;2023-08-21T05:33:36;102045.28;;;16.60;79.72
76201;BME280;64981;52.930;9.266;2023-08-21T05:36:02;102054.94;;;16.69;79.60
76201;BME280;64981;52.930;9.266;2023-08-21T05:38:27;102051.59;;;16.67;79.40
76201;BME280;64981;52.930;9.266;2023-08-21T05:40:53;102056.72;;;16.77;79.36
76201;BME280;64981;52.930;9.266;2023-08-21T05:43:18;102048.38;;;16.80;79.37
76201;BME280;64981;52.930;9.266;2023-08-21T05:45:44;102054.41;;;16.82;79.30
76201;BME280;64981;52.930;9.266;2023-08-21T05:48:10;102048.19;;;16.90;79.62
76201;BME280;64981;52.930;9.266;2023-08-21T05:50:36;102054.34;;;16.98;79.88
76201;BME280;64981;52.930;9.266;2023-08-21T05:53:03;102055.69;;;17.02;79.55
76201;BME280;64981;52.930;9.266;2023-08-21T05:55:29;102052.69;;;17.05;79.20
76201;BME280;64981;52.930;9.266;2023-08-21T05:57:55;102048.97;;;17.14;78.97
76201;BME280;64981;52.930;9.266;2023-08-21T06:00:20;102050.44;;;17.17;78.93
76201;BME280;64981;52.930;9.266;2023-08-21T06:02:47;102056.78;;;17.24;78.98
76201;BME280;64981;52.930;9.266;2023-08-21T06:05:12;102057.75;;;17.31;79.06
76201;BME280;64981;52.930;9.266;2023-08-21T06:07:38;102061.88;;;17.42;78.74
76201;BME280;64981;52.930;9.266;2023-08-21T06:10:07;102065.00;;;17.45;78.74
76201;BME280;64981;52.930;9.266;2023-08-21T06:12:32;102060.63;;;17.52;78.67
76201;BME280;64981;52.930;9.266;2023-08-21T06:14:58;102067.44;;;17.63;78.50
76201;BME280;64981;52.930;9.266;2023-08-21T06:17:23;102062.75;;;17.65;78.48
76201;BME280;64981;52.930;9.266;2023-08-21T06:19:49;102070.72;;;17.73;78.31
76201;BME280;64981;52.930;9.266;2023-08-21T06:22:15;102078.19;;;17.77;78.76
76201;BME280;64981;52.930;9.266;2023-08-21T06:24:40;102075.66;;;17.84;78.51
76201;BME280;64981;52.930;9.266;2023-08-21T06:27:07;102081.28;;;17.97;78.25
76201;BME280;64981;52.930;9.266;2023-08-21T06:29:32;102078.50;;;18.13;77.79
76201;BME280;64981;52.930;9.266;2023-08-21T06:31:58;102071.94;;;18.16;77.33
76201;BME280;64981;52.930;9.266;2023-08-21T06:34:24;102078.72;;;18.26;76.77
76201;BME280;64981;52.930;9.266;2023-08-21T06:36:49;102079.00;;;18.32;76.45
76201;BME280;64981;52.930;9.266;2023-08-21T06:39:15;102070.53;;;18.43;75.94
76201;BME280;64981;52.930;9.266;2023-08-21T06:41:41;102078.97;;;18.54;75.39
76201;BME280;64981;52.930;9.266;2023-08-21T06:44:06;102074.16;;;18.64;75.92
76201;BME280;64981;52.930;9.266;2023-08-21T06:46:32;102074.13;;;18.87;75.57
76201;BME280;64981;52.930;9.266;2023-08-21T06:48:57;102082.63;;;19.05;75.34
76201;BME280;64981;52.930;9.266;2023-08-21T06:51:23;102076.91;;;19.23;73.71
76201;BME280;64981;52.930;9.266;2023-08-21T06:53:48;102081.09;;;19.47;73.25
76201;BME280;64981;52.930;9.266;2023-08-21T06:56:15;102080.28;;;19.61;71.29
76201;BME280;64981;52.930;9.266;2023-08-21T06:58:40;102076.47;;;19.55;70.83
76201;BME280;64981;52.930;9.266;2023-08-21T07:01:06;102078.50;;;19.68;70.97
76201;BME280;64981;52.930;9.266;2023-08-21T07:03:32;102071.06;;;19.84;70.43
76201;BME280;64981;52.930;9.266;2023-08-21T07:05:59;102076.41;;;19.84;70.35
76201;BME280;64981;52.930;9.266;2023-08-21T07:08:26;102073.59;;;19.93;70.29
76201;BME280;64981;52.930;9.266;2023-08-21T07:10:52;102077.47;;;20.05;70.84
76201;BME280;64981;52.930;9.266;2023-08-21T07:13:19;102083.75;;;20.18;71.29
76201;BME280;64981;52.930;9.266;2023-08-21T07:15:46;102089.00;;;20.26;69.08
76201;BME280;64981;52.930;9.266;2023-08-21T07:18:12;102082.22;;;20.30;69.14
76201;BME280;64981;52.930;9.266;2023-08-21T07:20:38;102076.44;;;20.33;69.43
76201;BME280;64981;52.930;9.266;2023-08-21T07:23:03;102082.63;;;20.49;69.73
76201;BME280;64981;52.930;9.266;2023-08-21T07:25:29;102083.53;;;20.62;69.50
76201;BME280;64981;52.930;9.266;2023-08-21T07:27:55;102081.72;;;20.69;68.17
76201;BME280;64981;52.930;9.266;2023-08-21T07:30:21;102090.75;;;20.62;68.31
76201;BME280;64981;52.930;9.266;2023-08-21T07:32:48;102089.22;;;20.74;67.52
76201;BME280;64981;52.930;9.266;2023-08-21T07:35:15;102089.59;;;20.71;67.49
76201;BME280;64981;52.930;9.266;2023-08-21T07:37:44;102088.72;;;20.64;68.07
76201;BME280;64981;52.930;9.266;2023-08-21T07:40:10;102094.81;;;20.79;67.54
76201;BME280;64981;52.930;9.266;2023-08-21T07:42:36;102092.63;;;20.89;67.80
76201;BME280;64981;52.930;9.266;2023-08-21T07:45:02;102104.19;;;20.89;66.71
76201;BME280;64981;52.930;9.266;2023-08-21T07:47:28;102102.91;;;20.85;67.01
76201;BME280;64981;52.930;9.266;2023-08-21T07:49:54;102107.50;;;20.91;67.20
76201;BME280;64981;52.930;9.266;2023-08-21T07:52:20;102107.94;;;20.95;67.55
76201;BME280;64981;52.930;9.266;2023-08-21T07:54:46;102106.94;;;21.03;67.36
76201;BME280;64981;52.930;9.266;2023-08-21T07:57:12;102104.84;;;20.98;67.04
76201;BME280;64981;52.930;9.266;2023-08-21T07:59:38;102116.09;;;21.08;67.62
76201;BME280;64981;52.930;9.266;2023-08-21T08:02:04;102109.56;;;21.17;67.06
76201;BME280;64981;52.930;9.266;2023-08-21T08:04:30;102119.09;;;21.26;65.48
76201;BME280;64981;52.930;9.266;2023-08-21T08:06:56;102110.69;;;21.36;65.19
76201;BME280;64981;52.930;9.266;2023-08-21T08:09:21;102099.72;;;21.37;65.33
76201;BME280;64981;52.930;9.266;2023-08-21T08:11:47;102093.94;;;21.40;65.25
76201;BME280;64981;52.930;9.266;2023-08-21T08:14:12;102088.41;;;21.49;64.00
76201;BME280;64981;52.930;9.266;2023-08-21T08:16:38;102096.69;;;21.54;64.00
76201;BME280;64981;52.930;9.266;2023-08-21T08:19:03;102097.47;;;21.48;64.27
76201;BME280;64981;52.930;9.266;2023-08-21T08:21:29;102097.03;;;21.37;61.19
76201;BME280;64981;52.930;9.266;2023-08-21T08:23:56;102091.63;;;21.31;61.98
76201;BME280;64981;52.930;9.266;2023-08-21T08:26:21;102094.59;;;21.42;63.13
76201;BME280;64981;52.930;9.266;2023-08-21T08:28:47;102098.19;;;21.22;63.75
76201;BME280;64981;52.930;9.266;2023-08-21T08:31:15;102099.78;;;21.51;63.85
76201;BME280;64981;52.930;9.266;2023-08-21T08:33:41;102090.13;;;21.69;62.88
76201;BME280;64981;52.930;9.266;2023-08-21T08:36:07;102093.88;;;21.81;61.00
76201;BME280;64981;52.930;9.266;2023-08-21T08:38:33;102099.47;;;21.86;58.12
76201;BME280;64981;52.930;9.266;2023-08-21T08:41:02;102087.09;;;21.92;57.79
76201;BME280;64981;52.930;9.266;2023-08-21T08:43:28;102087.53;;;22.02;58.33
76201;BME280;64981;52.930;9.266;2023-08-21T08:45:56;102089.38;;;21.95;58.10
76201;BME280;64981;52.930;9.266;2023-08-21T08:48:23;102090.84;;;22.04;58.22
76201;BME280;64981;52.930;9.266;2023-08-21T08:50:51;102086.50;;;22.10;58.10
76201;BME280;64981;52.930;9.266;2023-08-21T08:53:18;102091.06;;;22.16;58.46
76201;BME280;64981;52.930;9.266;2023-08-21T08:55:44;102093.75;;;22.16;57.43
76201;BME280;64981;52.930;9.266;2023-08-21T08:58:10;102090.47;;;22.27;56.48
76201;BME280;64981;52.930;9.266;2023-08-21T09:00:36;102096.25;;;22.30;55.67
76201;BME280;64981;52.930;9.266;2023-08-21T09:03:02;102088.38;;;22.35;56.62
76201;BME280;64981;52.930;9.266;2023-08-21T09:05:28;102092.31;;;22.46;54.58
76201;BME280;64981;52.930;9.266;2023-08-21T09:08:08;102084.22;;;22.13;53.58
76201;BME280;64981;52.930;9.266;2023-08-21T09:10:37;102076.38;;;22.12;54.78
76201;BME280;64981;52.930;9.266;2023-08-21T09:13:10;102074.31;;;22.33;54.27
76201;BME280;64981;52.930;9.266;2023-08-21T09:15:36;102087.13;;;22.51;53.59
76201;BME280;64981;52.930;9.266;2023-08-21T09:18:02;102083.84;;;22.49;53.74
76201;BME280;64981;52.930;9.266;2023-08-21T09:20:34;102085.47;;;22.43;54.24
76201;BME280;64981;52.930;9.266;2023-08-21T09:23:00;102079.66;;;22.60;53.73
76201;BME280;64981;52.930;9.266;2023-08-21T09:25:25;102079.06;;;22.77;53.81
76201;BME280;64981;52.930;9.266;2023-08-21T09:27:52;102088.34;;;22.94;53.50
76201;BME280;64981;52.930;9.266;2023-08-21T09:30:19;102079.41;;;23.00;53.18
76201;BME280;64981;52.930;9.266;2023-08-21T09:32:55;102079.66;;;22.60;53.36
76201;BME280;64981;52.930;9.266;2023-08-21T09:35:22;102074.25;;;22.99;53.06
76201;BME280;64981;52.930;9.266;2023-08-21T09:37:48;102074.84;;;23.08;51.58
76201;BME280;64981;52.930;9.266;2023-08-21T09:40:15;102077.50;;;23.14;51.79
76201;BME280;64981;52.930;9.266;2023-08-21T09:42:41;102074.97;;;23.26;51.10
76201;BME280;64981;52.930;9.266;2023-08-21T09:45:07;102079.97;;;23.22;49.93
76201;BME280;64981;52.930;9.266;2023-08-21T09:47:33;102079.09;;;23.28;49.60
76201;BME280;64981;52.930;9.266;2023-08-21T09:50:00;102077.47;;;23.34;49.14
76201;BME280;64981;52.930;9.266;2023-08-21T09:52:26;102081.16;;;23.46;49.10
76201;BME280;64981;52.930;9.266;2023-08-21T09:54:53;102077.78;;;23.50;47.92
76201;BME280;64981;52.930;9.266;2023-08-21T09:57:22;102051.13;;;23.36;47.89
76201;BME280;64981;52.930;9.266;2023-08-21T09:59:53;102070.66;;;23.63;48.02
76201;BME280;64981;52.930;9.266;2023-08-21T10:02:20;102063.09;;;23.46;48.21
76201;BME280;64981;52.930;9.266;2023-08-21T10:04:48;102081.25;;;23.13;48.36
76201;BME280;64981;52.930;9.266;2023-08-21T10:07:16;102069.47;;;22.94;50.13
76201;BME280;64981;52.930;9.266;2023-08-21T10:09:45;102075.69;;;23.01;49.65
76201;BME280;64981;52.930;9.266;2023-08-21T10:12:14;102066.78;;;23.01;49.97
76201;BME280;64981;52.930;9.266;2023-08-21T10:14:41;102074.78;;;23.21;50.19
76201;BME280;64981;52.930;9.266;2023-08-21T10:17:07;102072.06;;;23.27;50.52
76201;BME280;64981;52.930;9.266;2023-08-21T10:19:35;102065.63;;;23.28;50.09
76201;BME280;64981;52.930;9.266;2023-08-21T10:22:01;102069.94;;;23.49;50.62
76201;BME280;64981;52.930;9.266;2023-08-21T10:24:34;102070.78;;;23.49;49.99
76201;BME280;64981;52.930;9.266;2023-08-21T10:27:01;102070.56;;;23.44;49.67
76201;BME280;64981;52.930;9.266;2023-08-21T10:29:27;102075.63;;;23.66;49.05
76201;BME280;64981;52.930;9.266;2023-08-21T10:32:01;102071.66;;;23.75;49.08
76201;BME280;64981;52.930;9.266;2023-08-21T10:34:37;102072.88;;;23.79;49.40
76201;BME280;64981;52.930;9.266;2023-08-21T10:37:07;102069.34;;;23.78;49.40
76201;BME280;64981;52.930;9.266;2023-08-21T10:39:35;102065.22;;;23.76;46.94
76201;BME280;64981;52.930;9.266;2023-08-21T10:42:08;102054.16;;;23.52;47.47
76201;BME280;64981;52.930;9.266;2023-08-21T10:44:47;102060.63;;;23.76;47.25
76201;BME280;64981;52.930;9.266;2023-08-21T10:47:21;102063.84;;;23.91;47.17
76201;BME280;64981;52.930;9.266;2023-08-21T10:49:52;102054.72;;;23.99;45.98
76201;BME280;64981;52.930;9.266;2023-08-21T10:52:28;102057.38;;;24.05;46.07
76201;BME280;64981;52.930;9.266;2023-08-21T10:54:56;102047.50;;;23.86;46.40
76201;BME280;64981;52.930;9.266;2023-08-21T10:57:23;102047.50;;;23.55;46.22
76201;BME280;64981;52.930;9.266;2023-08-21T10:59:52;102056.84;;;23.52;47.05
76201;BME280;64981;52.930;9.266;2023-08-21T11:02:19;102063.91;;;23.85;46.60
76201;BME280;64981;52.930;9.266;2023-08-21T11:04:44;102057.31;;;24.12;45.22
76201;BME280;64981;52.930;9.266;2023-08-21T11:07:11;102067.63;;;24.22;45.33
76201;BME280;64981;52.930;9.266;2023-08-21T11:09:38;102050.84;;;24.38;45.18
76201;BME280;64981;52.930;9.266;2023-08-21T11:12:14;102045.88;;;24.35;45.73
76201;BME280;64981;52.930;9.266;2023-08-21T11:14:40;102039.78;;;24.21;44.54
76201;BME280;64981;52.930;9.266;2023-08-21T11:17:07;102051.03;;;24.43;45.68
76201;BME280;64981;52.930;9.266;2023-08-21T11:19:34;102051.47;;;24.40;45.34
76201;BME280;64981;52.930;9.266;2023-08-21T11:22:00;102052.78;;;24.55;43.77
76201;BME280;64981;52.930;9.266;2023-08-21T11:24:31;102059.16;;;24.61;44.59
76201;BME280;64981;52.930;9.266;2023-08-21T11:27:04;102052.81;;;24.74;44.16
76201;BME280;64981;52.930;9.266;2023-08-21T11:29:39;102063.63;;;24.74;43.73
76201;BME280;64981;52.930;9.266;2023-08-21T11:32:18;102055.97;;;24.71;43.86
76201;BME280;64981;52.930;9.266;2023-08-21T11:34:53;102044.84;;;24.79;43.70
76201;BME280;64981;52.930;9.266;2023-08-21T11:37:21;102054.25;;;24.76;46.10
76201;BME280;64981;52.930;9.266;2023-08-21T11:39:53;102048.47;;;24.91;43.86
76201;BME280;64981;52.930;9.266;2023-08-21T11:42:21;102049.09;;;24.93;43.29
76201;BME280;64981;52.930;9.266;2023-08-21T11:44:50;102054.56;;;25.04;43.67
76201;BME280;64981;52.930;9.266;2023-08-21T11:47:18;102052.09;;;25.03;43.67
76201;BME280;64981;52.930;9.266;2023-08-21T11:49:45;102053.72;;;25.04;43.30
76201;BME280;64981;52.930;9.266;2023-08-21T11:52:20;102044.06;;;24.96;42.21
76201;BME280;64981;52.930;9.266;2023-08-21T11:54:49;102039.44;;;24.79;41.72
76201;BME280;64981;52.930;9.266;2023-08-21T11:57:15;102046.00;;;24.89;42.85
76201;BME280;64981;52.930;9.266;2023-08-21T11:59:41;102039.44;;;24.79;42.77
76201;BME280;64981;52.930;9.266;2023-08-21T12:02:13;102042.78;;;24.81;43.78
76201;BME280;64981;52.930;9.266;2023-08-21T12:04:39;102040.91;;;24.99;43.25
76201;BME280;64981;52.930;9.266;2023-08-21T12:07:05;102039.47;;;25.15;42.01
76201;BME280;64981;52.930;9.266;2023-08-21T12:09:31;102042.69;;;25.24;43.69
76201;BME280;64981;52.930;9.266;2023-08-21T12:11:56;102044.09;;;25.26;43.15
76201;BME280;64981;52.930;9.266;2023-08-21T12:14:22;102051.16;;;25.27;41.38
76201;BME280;64981;52.930;9.266;2023-08-21T12:16:48;102048.91;;;25.42;41.66
76201;BME280;64981;52.930;9.266;2023-08-21T12:19:14;102044.28;;;25.31;39.57
76201;BME280;64981;52.930;9.266;2023-08-21T12:21:40;102044.63;;;25.35;39.62
76201;BME280;64981;52.930;9.266;2023-08-21T12:24:05;102053.19;;;25.50;38.80
76201;BME280;64981;52.930;9.266;2023-08-21T12:26:33;102053.34;;;25.37;39.02
76201;BME280;64981;52.930;9.266;2023-08-21T12:28:59;102052.44;;;25.25;38.86
76201;BME280;64981;52.930;9.266;2023-08-21T12:31:25;102047.94;;;25.37;40.40
76201;BME280;64981;52.930;9.266;2023-08-21T12:33:50;102044.09;;;25.44;40.96
76201;BME280;64981;52.930;9.266;2023-08-21T12:36:16;102038.31;;;25.23;38.48
76201;BME280;64981;52.930;9.266;2023-08-21T12:38:42;102043.78;;;25.16;39.72
76201;BME280;64981;52.930;9.266;2023-08-21T12:41:07;102034.88;;;25.34;39.95
76201;BME280;64981;52.930;9.266;2023-08-21T12:43:33;102032.13;;;25.52;38.96
76201;BME280;64981;52.930;9.266;2023-08-21T12:45:58;102032.00;;;25.47;38.62
76201;BME280;64981;52.930;9.266;2023-08-21T12:48:24;102027.94;;;25.68;38.67